Terminal Aerodrome Forecast
Issued by NWS Charleston, WV

Current Version | Previous Version | Graphics & Text | Print | Product List | Glossary On
Versions: 1 2 3 4 5 6 7 8 9 10 11 12 13 14 15 16 17 18 19 20 21 22 23 24 25 26 27 28
000
FTUS41 KRLX 271156 CCA
TAFHTS
TAF COR
KHTS 271156Z 2712/2812 00000KT 6SM BR VCTS BKN040CB
     FM271400 00000KT 6SM HZ VCTS BKN040CB
     FM280000 00000KT P6SM BKN040
     FM280900 00000KT P6SM BKN200=

USA.gov is the U.S. government's official web portal to all federal, state and local government web resources and services.